Time;durP1;ratioP1;P1;durP2;ratioP2;P2;SDS_P1;SDS_P2;PMS_P1;PMS_P2;Temp;Humidity;BMP_temperature;BMP_pressure;BME280_temperature;BME280_humidity;BME280_pressure;Samples;Min_cycle;Max_cycle;Signal;HPM_P1;HPM_P2
2023/04/25 00:00:06;;;;;;;12.30;5.70;;;8.20;99.90;;;7.40;74.54;100018.75;5095444;28;20208;-74
2023/04/25 00:02:38;;;;;;;14.40;5.33;;;8.20;99.90;;;7.42;74.62;100027.44;5095453;28;20189;-74
2023/04/25 00:05:11;;;;;;;12.13;5.57;;;8.20;99.90;;;7.38;75.17;100021.59;5095653;28;20185;-74
2023/04/25 00:07:43;;;;;;;10.60;5.23;;;8.10;99.90;;;7.40;74.97;100019.59;5095547;28;20193;-74
2023/04/25 00:10:17;;;;;;;11.70;5.87;;;8.20;99.90;;;7.46;75.08;100026.13;5095313;28;20193;-74
2023/04/25 00:12:49;;;;;;;12.07;5.23;;;8.20;99.90;;;7.44;75.71;100020.97;5095540;28;20201;-74
2023/04/25 00:15:21;;;;;;;12.73;5.53;;;8.20;99.90;;;7.41;75.89;100018.63;5095073;28;20700;-74
2023/04/25 00:17:53;;;;;;;9.90;5.70;;;8.20;99.90;;;7.37;76.48;100019.06;5095054;28;20602;-74
2023/04/25 00:20:25;;;;;;;13.70;5.93;;;8.20;99.90;;;7.34;76.77;100028.22;5095402;28;20287;-74
2023/04/25 00:22:57;;;;;;;12.60;5.50;;;8.10;99.90;;;7.32;77.11;100021.38;5095286;28;20209;-74
2023/04/25 00:25:30;;;;;;;9.37;5.37;;;8.10;99.90;;;7.34;76.81;100014.91;5095278;28;20197;-74
2023/04/25 00:28:02;;;;;;;13.03;6.43;;;8.10;99.90;;;7.25;77.01;100023.84;5095295;28;20630;-74
2023/04/25 00:30:34;;;;;;;11.53;5.93;;;8.00;99.90;;;7.21;76.95;100027.81;5095206;28;20223;-74
2023/04/25 00:33:06;;;;;;;13.70;6.13;;;8.00;99.90;;;7.25;77.05;100020.34;5095188;28;20254;-74
2023/04/25 00:35:39;;;;;;;12.90;5.87;;;8.00;99.90;;;7.30;77.04;100024.19;5094730;28;20211;-75
2023/04/25 00:38:11;;;;;;;11.50;5.80;;;8.00;99.90;;;7.36;76.63;100023.59;5094939;28;20231;-75
2023/04/25 00:40:44;;;;;;;11.23;5.97;;;8.10;99.90;;;7.32;76.55;100032.88;5095520;28;20189;-74
2023/04/25 00:43:17;;;;;;;10.93;5.47;;;8.10;99.90;;;7.32;76.69;100040.88;5094619;28;20185;-74
2023/04/25 00:45:55;;;;;;;11.57;5.57;;;8.10;99.90;;;7.24;76.74;100030.16;5094863;28;20193;-74
2023/04/25 00:48:27;;;;;;;15.63;6.00;;;8.10;99.90;;;7.32;76.48;100029.38;5094494;28;20224;-75
2023/04/25 00:51:02;;;;;;;15.13;5.60;;;8.10;99.90;;;7.24;75.95;100029.31;5094300;28;20200;-75
2023/04/25 00:53:36;;;;;;;14.77;5.87;;;8.00;99.90;;;7.24;76.29;100031.97;5094719;28;20197;-75
2023/04/25 00:56:10;;;;;;;13.07;5.40;;;8.00;99.90;;;7.27;76.31;100037.81;5094323;28;20204;-74
2023/04/25 00:58:43;;;;;;;14.63;5.83;;;8.00;99.90;;;7.28;76.07;100036.84;5094353;28;20240;-74
2023/04/25 01:01:16;;;;;;;17.10;5.90;;;8.10;99.90;;;7.24;76.37;100024.00;5094623;28;20193;-75
2023/04/25 01:03:50;;;;;;;10.93;5.17;;;8.00;99.90;;;7.33;75.92;100018.56;5094574;28;20181;-75
2023/04/25 01:06:23;;;;;;;11.30;5.13;;;8.10;99.90;;;7.30;76.19;100016.22;5094521;28;20184;-75
2023/04/25 01:08:55;;;;;;;16.00;6.17;;;8.10;99.90;;;7.32;76.15;100019.56;5094445;28;20221;-75
2023/04/25 01:11:29;;;;;;;16.50;5.83;;;8.10;99.90;;;7.23;76.76;100020.50;5094434;28;20193;-75
2023/04/25 01:14:02;;;;;;;13.80;5.50;;;8.00;99.90;;;7.21;76.92;100025.16;5094396;28;20196;-75
2023/04/25 01:16:34;;;;;;;13.33;6.10;;;8.00;99.90;;;7.20;76.68;100017.31;5094244;28;20216;-75
2023/04/25 01:19:10;;;;;;;11.57;5.13;;;8.00;99.90;;;7.20;77.05;100022.63;5094265;28;20278;-75
2023/04/25 01:21:43;;;;;;;8.67;5.17;;;8.00;99.90;;;7.20;76.73;100019.97;5093948;28;20661;-75
2023/04/25 01:24:16;;;;;;;13.87;5.67;;;8.00;99.90;;;7.18;76.99;100013.97;5094230;28;20189;-75
2023/04/25 01:26:50;;;;;;;16.00;6.20;;;7.90;99.90;;;7.19;76.97;100013.00;5094166;28;20208;-75
2023/04/25 01:29:24;;;;;;;15.70;6.47;;;7.90;99.90;;;7.17;77.03;100018.47;5094012;28;20248;-74
2023/04/25 01:31:58;;;;;;;12.13;5.83;;;8.00;99.90;;;7.20;77.13;100006.66;5094042;28;20181;-74
2023/04/25 01:34:29;;;;;;;14.80;5.90;;;8.00;99.90;;;7.19;76.94;100005.84;5093721;28;20217;-74
2023/04/25 01:37:04;;;;;;;16.77;7.67;;;8.00;99.90;;;7.19;77.03;100005.84;5093804;28;20248;-74
2023/04/25 01:39:37;;;;;;;10.57;6.30;;;8.00;99.90;;;7.15;76.96;100004.47;5093712;28;20588;-74
2023/04/25 01:42:08;;;;;;;11.17;6.10;;;7.90;99.90;;;7.15;77.36;100009.81;5093873;28;20197;-74
2023/04/25 01:44:40;;;;;;;16.53;6.17;;;7.90;99.90;;;7.09;77.56;100013.06;5093792;28;20204;-74
2023/04/25 01:47:12;;;;;;;15.40;6.83;;;7.90;99.90;;;7.13;77.55;100014.44;5093778;28;20197;-74
2023/04/25 01:49:44;;;;;;;13.70;6.73;;;7.90;99.90;;;7.14;77.28;100018.78;5093663;28;20228;-74
2023/04/25 01:52:17;;;;;;;13.60;7.17;;;7.90;99.90;;;7.07;77.60;100017.72;5093715;28;20219;-74
2023/04/25 01:54:50;;;;;;;13.57;7.03;;;7.90;99.90;;;7.05;77.75;100019.72;5093714;28;20189;-74
2023/04/25 01:57:22;;;;;;;12.30;6.57;;;7.80;99.90;;;7.04;77.94;100024.19;5093356;28;20262;-74
2023/04/25 01:59:55;;;;;;;12.40;6.77;;;7.80;99.90;;;7.11;78.08;100027.91;5093150;28;20229;-74
2023/04/25 02:02:27;;;;;;;14.23;7.27;;;7.90;99.90;;;7.13;77.97;100033.91;5093626;28;20193;-74
2023/04/25 02:04:59;;;;;;;15.70;7.00;;;7.90;99.90;;;7.08;78.03;100025.56;5093629;28;20185;-74
2023/04/25 02:07:32;;;;;;;15.60;7.40;;;7.80;99.90;;;7.05;78.34;100035.69;5093580;28;20186;-74
2023/04/25 02:10:04;;;;;;;13.00;7.33;;;7.90;99.90;;;7.09;78.22;100037.03;5093474;28;20193;-74
2023/04/25 02:12:36;;;;;;;14.30;7.03;;;7.90;99.90;;;7.09;78.67;100029.03;5093042;28;20200;-74
2023/04/25 02:15:11;;;;;;;11.10;7.20;;;7.80;99.90;;;7.06;78.33;100029.34;5093377;28;20188;-74
2023/04/25 02:17:44;;;;;;;12.70;7.60;;;7.90;99.90;;;7.05;78.60;100028.50;5093198;28;20212;-74
2023/04/25 02:20:17;;;;;;;11.87;6.63;;;7.80;99.90;;;7.03;78.62;100037.66;5093332;28;20189;-74
2023/04/25 02:22:50;;;;;;;16.83;7.40;;;7.80;99.90;;;6.99;79.11;100042.44;5093051;28;20212;-74
2023/04/25 02:25:23;;;;;;;11.33;6.93;;;7.80;99.90;;;6.99;79.64;100036.28;5093280;28;20200;-74
2023/04/25 02:27:55;;;;;;;13.77;7.10;;;7.80;99.90;;;7.04;80.60;100042.00;5093219;28;20565;-74
2023/04/25 02:30:27;;;;;;;12.97;6.73;;;7.80;99.90;;;7.00;80.90;100046.78;5093234;28;20185;-74
2023/04/25 02:32:59;;;;;;;12.53;6.83;;;7.70;99.90;;;6.96;81.59;100048.06;5093237;28;20189;-74
2023/04/25 02:35:31;;;;;;;12.30;7.57;;;7.70;99.90;;;7.00;81.95;100043.28;5092911;28;20193;-74
2023/04/25 02:38:04;;;;;;;15.10;7.13;;;7.70;99.90;;;6.97;82.57;100054.25;5093031;28;20239;-74
2023/04/25 02:40:36;;;;;;;14.77;6.50;;;7.80;99.90;;;6.98;82.79;100055.91;5093151;28;20192;-74
2023/04/25 02:43:08;;;;;;;14.37;6.90;;;7.80;99.90;;;6.97;82.93;100064.88;5093188;28;20634;-74
2023/04/25 02:45:40;;;;;;;13.97;6.80;;;7.70;99.90;;;6.82;83.62;100061.06;5093092;28;20197;-74
2023/04/25 02:48:11;;;;;;;13.60;6.57;;;7.60;99.90;;;6.84;82.40;100054.63;5092671;28;20229;-74
2023/04/25 02:50:44;;;;;;;12.17;6.57;;;7.60;99.90;;;6.94;81.82;100068.69;5093068;28;20189;-74
2023/04/25 02:53:17;;;;;;;10.80;5.80;;;7.70;99.90;;;6.92;81.52;100067.16;5092740;28;20189;-74
2023/04/25 02:55:49;;;;;;;12.17;5.97;;;7.70;99.90;;;6.89;80.72;100070.13;5092756;28;20228;-74
2023/04/25 02:58:23;;;;;;;12.77;5.33;;;7.70;99.90;;;6.97;80.06;100075.53;5092780;28;20229;-74
2023/04/25 03:00:54;;;;;;;14.73;5.87;;;7.70;99.90;;;6.96;79.82;100080.00;5092978;28;20192;-74
2023/04/25 03:03:26;;;;;;;13.80;5.13;;;7.70;99.90;;;6.97;79.64;100076.38;5092979;28;20185;-74
2023/04/25 03:05:58;;;;;;;15.87;5.20;;;7.70;99.90;;;6.92;79.18;100078.63;5092951;28;20238;-74
2023/04/25 03:08:32;;;;;;;16.90;5.17;;;7.70;99.90;;;6.96;78.62;100084.50;5092816;28;20217;-74
2023/04/25 03:11:04;;;;;;;14.67;4.80;;;7.70;99.90;;;6.98;78.36;100083.38;5092871;28;20189;-74
2023/04/25 03:13:36;;;;;;;18.87;5.30;;;7.70;99.90;;;6.92;77.60;100083.13;5095221;28;20196;-74
2023/04/25 03:16:09;;;;;;;11.87;4.73;;;7.70;99.90;;;6.90;77.59;100085.09;5096162;28;20539;-74
2023/04/25 03:18:41;;;;;;;22.77;5.53;;;7.60;99.90;;;6.84;77.42;100077.75;5096306;28;20225;-74
2023/04/25 03:21:14;;;;;;;16.10;5.03;;;7.60;99.90;;;6.89;77.34;100078.94;5095979;28;20213;-74
2023/04/25 03:23:47;;;;;;;17.67;4.63;;;7.60;99.90;;;6.96;77.26;100084.50;5096314;28;20196;-74
2023/04/25 03:26:20;;;;;;;15.17;4.47;;;7.70;99.90;;;6.94;77.22;100078.50;5095944;28;20185;-74
2023/04/25 03:28:52;;;;;;;17.23;5.50;;;7.70;99.90;;;6.92;76.98;100083.13;5095822;28;20869;-74
2023/04/25 03:31:24;;;;;;;18.30;4.67;;;7.60;99.90;;;6.90;77.00;100085.09;5096090;28;20185;-74
2023/04/25 03:33:55;;;;;;;14.33;4.80;;;7.60;99.90;;;6.79;78.18;100088.00;5096195;28;20199;-73
2023/04/25 03:36:29;;;;;;;21.03;4.97;;;7.50;99.90;;;6.77;77.98;100100.63;5095546;28;20189;-74
2023/04/25 03:39:02;;;;;;;18.57;5.00;;;7.50;99.90;;;6.78;78.15;100091.66;5095464;28;20317;-74
2023/04/25 03:41:36;;;;;;;16.53;4.70;;;7.50;99.90;;;6.69;79.08;100098.72;5095849;28;20192;-74
2023/04/25 03:44:09;;;;;;;18.17;4.93;;;7.40;99.90;;;6.72;78.54;100105.53;5095772;28;20192;-74
2023/04/25 03:46:41;;;;;;;19.47;5.27;;;7.50;99.90;;;6.69;78.98;100108.50;5095666;28;20193;-74
2023/04/25 03:49:14;;;;;;;16.47;4.80;;;7.40;99.90;;;6.71;78.76;100106.56;5095735;28;20237;-74
2023/04/25 03:51:50;;;;;;;18.17;4.57;;;7.50;99.90;;;6.77;78.42;100112.09;5095776;28;20189;-74
2023/04/25 03:54:22;;;;;;;22.80;5.90;;;7.50;99.90;;;6.75;79.10;100118.53;5095498;28;20633;-74
2023/04/25 03:56:54;;;;;;;16.13;5.43;;;7.50;99.90;;;6.77;78.53;100127.22;5095652;28;20185;-74
2023/04/25 03:59:26;;;;;;;20.00;5.27;;;7.50;99.90;;;6.73;78.76;100128.50;5095230;28;20248;-74
2023/04/25 04:01:59;;;;;;;19.33;5.17;;;7.40;99.90;;;6.75;78.24;100139.81;5095577;28;20193;-74
2023/04/25 04:04:30;;;;;;;17.60;5.07;;;7.50;99.90;;;6.61;77.60;100135.84;5095200;28;20555;-74
2023/04/25 04:07:02;;;;;;;23.50;5.63;;;7.40;99.90;;;6.59;77.48;100133.34;5095197;28;20528;-74
2023/04/25 04:09:35;;;;;;;17.77;5.20;;;7.40;99.90;;;6.66;77.38;100132.75;5095337;28;20217;-74
2023/04/25 04:12:08;;;;;;;22.10;5.33;;;7.40;99.90;;;6.57;78.12;100137.16;5095391;28;20193;-74
2023/04/25 04:14:40;;;;;;;19.53;6.03;;;7.30;99.90;;;6.53;78.46;100139.28;5095834;28;20189;-74
2023/04/25 04:17:12;;;;;;;18.07;4.97;;;7.30;99.90;;;6.49;78.12;100145.88;5095197;28;20212;-74
2023/04/25 04:19:44;;;;;;;19.00;5.20;;;7.30;99.90;;;6.46;78.08;100143.53;5095144;28;20228;-73
2023/04/25 04:22:16;;;;;;;19.37;5.20;;;7.30;99.90;;;6.52;78.00;100150.91;5094958;28;20196;-73
2023/04/25 04:24:49;;;;;;;14.40;4.60;;;7.30;99.90;;;6.61;77.35;100155.31;5095056;28;20201;-74
2023/04/25 04:27:23;;;;;;;15.17;4.47;;;7.40;99.90;;;6.64;76.67;100148.88;5094800;28;20632;-74
2023/04/25 04:29:55;;;;;;;18.43;5.10;;;7.40;99.90;;;6.53;77.27;100149.06;5094821;28;20221;-74
2023/04/25 04:32:27;;;;;;;22.80;5.43;;;7.30;99.90;;;6.51;77.41;100159.84;5095796;28;20193;-74
2023/04/25 04:34:59;;;;;;;19.60;5.07;;;7.30;99.90;;;6.50;77.41;100152.88;5095023;28;20193;-74
2023/04/25 04:37:31;;;;;;;16.97;4.93;;;7.30;99.90;;;6.55;77.15;100158.56;5094548;28;20621;-74
2023/04/25 04:40:05;;;;;;;19.40;6.03;;;7.30;99.90;;;6.46;76.90;100162.13;5094821;28;20199;-73
2023/04/25 04:42:37;;;;;;;15.83;4.77;;;7.30;99.90;;;6.48;76.85;100170.78;5094846;28;20193;-73
2023/04/25 04:45:11;;;;;;;14.97;4.83;;;7.30;99.90;;;6.59;76.31;100173.25;5094725;28;20564;-73
2023/04/25 04:47:43;;;;;;;21.53;5.53;;;7.40;99.90;;;6.59;75.66;100175.91;5094597;28;20192;-74
2023/04/25 04:50:16;;;;;;;15.93;4.80;;;7.40;99.90;;;6.59;75.43;100165.28;5094674;28;20234;-74
2023/04/25 04:52:48;;;;;;;18.43;5.20;;;7.40;99.90;;;6.59;75.72;100173.25;5094613;28;20192;-74
2023/04/25 04:55:21;;;;;;;21.23;5.07;;;7.40;99.90;;;6.55;75.47;100177.19;5094558;28;20242;-74
2023/04/25 04:57:53;;;;;;;21.43;4.87;;;7.40;99.90;;;6.59;75.33;100178.56;5094383;28;20236;-74
2023/04/25 05:00:25;;;;;;;21.50;5.27;;;7.40;99.90;;;6.55;75.51;100190.50;5094116;28;20228;-74
2023/04/25 05:03:00;;;;;;;25.43;5.17;;;7.30;99.90;;;6.55;75.45;100193.16;5094412;28;20275;-74
2023/04/25 05:05:33;;;;;;;18.90;4.97;;;7.30;99.90;;;6.64;74.96;100194.91;5094292;28;20224;-74
2023/04/25 05:08:04;;;;;;;15.60;4.10;;;7.40;99.90;;;6.65;74.86;100198.41;5094204;28;20225;-74
2023/04/25 05:10:38;;;;;;;17.57;4.77;;;7.40;99.90;;;6.64;74.22;100197.56;5093926;28;20625;-74
2023/04/25 05:13:09;;;;;;;20.93;4.80;;;7.40;99.90;;;6.57;73.96;100208.97;5094218;28;20190;-74
2023/04/25 05:15:41;;;;;;;21.00;5.03;;;7.40;99.90;;;6.62;73.67;100210.19;5094157;28;20207;-74
2023/04/25 05:18:13;;;;;;;22.90;6.17;;;7.40;99.90;;;6.56;73.92;100216.09;5094024;28;20225;-74
2023/04/25 05:20:45;;;;;;;26.20;5.60;;;7.30;99.90;;;6.55;74.64;100225.06;5093762;28;20657;-74
2023/04/25 05:23:17;;;;;;;23.87;5.80;;;7.30;99.90;;;6.54;73.99;100218.06;5093690;28;20189;-74
2023/04/25 05:25:51;;;;;;;22.53;5.13;;;7.30;99.90;;;6.51;73.91;100218.34;5093658;28;20649;-74
2023/04/25 05:28:22;;;;;;;24.87;5.53;;;7.30;99.90;;;6.56;73.36;100216.09;5093546;28;20712;-74
2023/04/25 05:30:54;;;;;;;19.57;4.87;;;7.40;99.90;;;6.56;73.05;100221.44;5093883;28;20229;-74
2023/04/25 05:33:26;;;;;;;21.93;5.30;;;7.30;99.60;;;6.58;72.69;100215.94;5093548;28;20185;-74
2023/04/25 05:35:58;;;;;;;26.67;5.03;;;7.40;99.40;;;6.57;72.65;100223.13;5093337;28;20196;-74
2023/04/25 05:38:30;;;;;;;23.57;6.33;;;7.30;99.50;;;6.57;72.90;100220.44;5093350;28;20259;-74
2023/04/25 05:41:08;;;;;;;19.60;4.87;;;7.40;99.60;;;6.62;73.51;100226.16;5093790;28;20222;-74
2023/04/25 05:43:44;;;;;;;20.80;5.23;;;7.40;99.80;;;6.64;72.36;100232.16;5093410;28;20189;-74
2023/04/25 05:46:17;;;;;;;19.57;5.17;;;7.40;99.30;;;6.69;72.13;100215.75;5093658;28;20197;-74
2023/04/25 05:48:49;;;;;;;17.67;5.17;;;7.50;99.40;;;6.76;71.58;100232.81;5093601;28;20221;-74
2023/04/25 05:51:21;;;;;;;20.87;5.00;;;7.50;99.00;;;6.81;71.57;100240.34;5093306;28;20189;-74
2023/04/25 05:53:52;;;;;;;19.50;4.57;;;7.60;98.90;;;6.82;70.65;100247.31;5093584;28;20600;-74
2023/04/25 05:56:26;;;;;;;14.20;4.57;;;7.60;98.40;;;6.80;69.75;100241.31;5093550;28;20197;-74
2023/04/25 05:58:58;;;;;;;20.47;5.23;;;7.60;98.00;;;6.76;68.98;100248.75;5093213;28;20224;-75
2023/04/25 06:01:28;;;;;;;23.43;4.47;;;7.60;97.60;;;6.79;69.37;100255.59;5093520;28;20197;-74
2023/04/25 06:04:00;;;;;;;16.97;4.50;;;7.60;97.90;;;6.83;68.79;100262.31;5093109;28;20204;-74
2023/04/25 06:06:32;;;;;;;20.30;4.90;;;7.60;97.70;;;6.84;68.15;100261.34;5093432;28;20189;-74
2023/04/25 06:09:04;;;;;;;14.83;4.80;;;7.60;97.40;;;6.82;67.66;100265.94;5093392;28;20338;-74
2023/04/25 06:11:37;;;;;;;20.57;4.50;;;7.50;97.00;;;6.78;67.96;100267.25;5093585;28;20201;-74
2023/04/25 06:14:09;;;;;;;16.93;4.57;;;7.60;97.40;;;6.68;67.86;100261.16;5093463;28;20212;-75
2023/04/25 06:16:40;;;;;;;21.53;4.50;;;7.50;96.80;;;6.73;67.55;100262.38;5092989;28;20192;-73
2023/04/25 06:19:12;;;;;;;21.23;4.50;;;7.50;96.90;;;6.72;66.13;100273.13;5093178;28;20232;-73
2023/04/25 06:21:46;;;;;;;17.13;5.17;;;7.50;96.40;;;6.82;66.52;100276.59;5093322;28;20193;-74
2023/04/25 06:24:18;;;;;;;16.90;4.33;;;7.60;96.60;;;6.87;66.55;100271.69;5093207;28;20192;-74
2023/04/25 06:26:51;;;;;;;22.00;4.60;;;7.60;96.60;;;6.92;65.61;100280.03;5093256;28;20185;-74
2023/04/25 06:29:24;;;;;;;14.17;3.97;;;7.70;96.10;;;6.94;63.72;100281.59;5093192;28;20231;-74
2023/04/25 06:31:56;;;;;;;15.23;3.37;;;7.70;95.20;;;6.95;63.14;100279.78;5093689;28;20188;-74
2023/04/25 06:34:28;;;;;;;14.10;4.07;;;7.70;94.30;;;6.98;61.96;100282.13;5093160;28;20189;-74
2023/04/25 06:37:00;;;;;;;18.43;4.23;;;7.70;94.10;;;6.88;61.56;100270.69;5093080;28;20193;-74
2023/04/25 06:39:32;;;;;;;22.77;4.60;;;7.70;93.90;;;6.91;62.47;100281.88;5092682;28;20742;-74
2023/04/25 06:42:05;;;;;;;21.87;4.43;;;7.70;94.80;;;7.02;62.05;100280.84;5093178;28;20210;-74
2023/04/25 06:44:37;;;;;;;15.87;3.57;;;7.80;94.30;;;7.13;61.46;100283.28;5093111;28;20192;-73
2023/04/25 06:47:10;;;;;;;13.73;4.20;;;7.90;94.00;;;7.16;59.95;100285.66;5093268;28;20200;-74
2023/04/25 06:49:41;;;;;;;15.93;3.60;;;7.90;93.10;;;7.20;58.84;100289.69;5096999;28;20221;-74
2023/04/25 06:52:13;;;;;;;19.17;4.17;;;8.00;92.60;;;7.23;59.43;100285.88;5097089;28;20200;-74
2023/04/25 06:54:45;;;;;;;14.57;3.90;;;8.00;92.60;;;7.26;60.47;100289.09;5096605;28;20641;-74
2023/04/25 06:57:18;;;;;;;14.10;4.07;;;8.00;93.20;;;7.19;58.21;100285.38;5096809;28;20189;-74
2023/04/25 06:59:50;;;;;;;23.23;3.87;;;8.00;91.90;;;7.22;60.53;100295.72;5096270;28;20224;-74
2023/04/25 07:02:22;;;;;;;15.30;4.30;;;8.00;93.10;;;7.21;60.90;100288.72;5096426;28;20242;-74
2023/04/25 07:04:55;;;;;;;18.00;4.50;;;8.00;93.60;;;7.17;59.94;100292.66;5096655;28;20209;-74
2023/04/25 07:07:28;;;;;;;14.37;3.93;;;8.00;93.00;;;7.12;58.49;100297.59;5096555;28;20199;-74
2023/04/25 07:10:00;;;;;;;16.93;4.07;;;7.90;92.20;;;7.17;58.74;100300.63;5096587;28;20192;-74
2023/04/25 07:12:33;;;;;;;17.90;3.63;;;8.00;92.40;;;7.19;58.39;100304.00;5096561;28;20196;-74
2023/04/25 07:15:07;;;;;;;13.77;4.13;;;7.90;92.00;;;7.25;59.47;100303.41;5096489;28;20197;-74
2023/04/25 07:17:39;;;;;;;15.33;4.10;;;8.00;92.70;;;7.35;60.37;100303.34;5096539;28;20222;-74
2023/04/25 07:20:11;;;;;;;17.97;4.20;;;8.10;93.50;;;7.46;59.35;100292.47;5096966;28;20630;-74
2023/04/25 07:22:43;;;;;;;16.87;4.70;;;8.20;92.70;;;7.43;59.30;100303.44;5096805;28;20196;-73
2023/04/25 07:25:16;;;;;;;19.60;3.77;;;8.20;92.80;;;7.35;58.77;100304.19;5096218;28;20212;-75
2023/04/25 07:27:49;;;;;;;11.70;3.27;;;8.20;92.20;;;7.43;58.84;100312.22;5096407;28;20204;-74
2023/04/25 07:30:21;;;;;;;19.30;3.33;;;8.20;92.40;;;7.48;59.23;100306.47;5096465;28;20192;-74
2023/04/25 07:32:52;;;;;;;12.37;3.13;;;8.20;92.40;;;7.47;59.02;100318.09;5096286;28;20196;-74
2023/04/25 07:35:24;;;;;;;13.83;3.80;;;8.20;92.30;;;7.52;60.72;100302.53;5096257;28;20223;-74
2023/04/25 07:37:56;;;;;;;19.00;4.37;;;8.30;93.20;;;7.53;61.44;100313.00;5096136;28;20225;-74
2023/04/25 07:40:29;;;;;;;12.53;3.43;;;8.30;93.70;;;7.56;61.59;100312.72;5095768;28;20214;-74
2023/04/25 07:43:02;;;;;;;15.70;3.60;;;8.30;93.90;;;7.44;61.07;100316.59;5096116;28;20190;-74
2023/04/25 07:45:34;;;;;;;14.47;3.67;;;8.20;93.50;;;7.48;62.12;100320.63;5095739;28;20185;-74
2023/04/25 07:48:06;;;;;;;11.20;3.83;;;8.20;94.00;;;7.38;61.13;100319.84;5095991;28;20260;-74
2023/04/25 07:50:38;;;;;;;13.50;3.40;;;8.20;93.50;;;7.36;61.13;100329.84;5095944;28;20193;-74
2023/04/25 07:53:10;;;;;;;14.20;3.70;;;8.20;93.80;;;7.42;62.18;100329.22;5095936;28;20211;-74
2023/04/25 07:55:42;;;;;;;12.83;4.53;;;8.20;94.10;;;7.39;61.72;100337.53;5095870;28;20192;-74
2023/04/25 07:58:15;;;;;;;13.80;3.70;;;8.20;94.00;;;7.52;62.06;100338.00;5094999;28;20235;-74
2023/04/25 08:00:47;;;;;;;14.57;3.83;;;8.30;94.30;;;7.57;62.19;100332.19;5095726;28;20248;-73
2023/04/25 08:03:19;;;;;;;17.47;4.20;;;8.30;94.00;;;7.60;61.86;100331.91;5095361;28;20536;-74
2023/04/25 08:05:51;;;;;;;10.50;3.13;;;8.40;94.10;;;7.65;62.08;100348.28;5095186;28;20607;-74
2023/04/25 08:08:24;;;;;;;17.07;4.07;;;8.40;93.80;;;7.53;60.89;100336.16;5094945;28;20252;-73
2023/04/25 08:10:59;;;;;;;22.20;4.07;;;8.30;93.30;;;7.49;60.47;100346.28;5094760;28;20634;-73
2023/04/25 08:13:32;;;;;;;16.00;3.40;;;8.30;93.30;;;7.61;60.71;100341.56;5095229;28;20283;-74
2023/04/25 08:16:04;;;;;;;14.00;3.30;;;8.40;93.40;;;7.71;60.07;100346.81;5095232;28;20661;-74
2023/04/25 08:18:36;;;;;;;10.20;3.10;;;8.40;93.10;;;7.76;59.18;100345.38;5095657;28;20285;-74
2023/04/25 08:21:11;;;;;;;13.20;3.47;;;8.50;92.70;;;7.73;58.26;100352.84;5095251;28;20255;-74
2023/04/25 08:23:43;;;;;;;12.80;3.63;;;8.50;92.00;;;7.80;56.79;100345.94;5095372;28;20196;-75
2023/04/25 08:26:15;;;;;;;10.07;3.17;;;8.50;91.40;;;7.87;58.21;100358.50;5095007;28;20622;-75
2023/04/25 08:28:49;;;;;;;11.60;3.27;;;8.60;92.00;;;7.93;57.64;100357.03;5095205;28;20265;-74
2023/04/25 08:31:22;;;;;;;9.30;2.60;;;8.70;91.50;;;8.01;56.52;100354.47;5095221;28;20294;-74
2023/04/25 08:33:54;;;;;;;9.17;3.00;;;8.70;91.00;;;8.01;55.79;100359.78;5095216;28;20197;-74
2023/04/25 08:36:27;;;;;;;14.20;3.27;;;8.80;90.50;;;8.07;55.63;100356.50;5095173;28;20275;-74
2023/04/25 08:39:13;;;;;;;8.27;2.73;;;8.80;90.70;;;8.18;55.29;100355.44;5095058;28;20221;-75
2023/04/25 08:41:48;;;;;;;10.57;3.23;;;8.90;90.30;;;8.27;54.81;100358.00;5095617;28;20210;-74
2023/04/25 08:44:24;;;;;;;12.83;3.10;;;9.00;90.00;;;8.32;55.52;100362.91;5094966;28;20254;-74
2023/04/25 08:46:59;;;;;;;8.57;2.83;;;9.10;90.40;;;8.37;55.32;100374.78;5094856;28;20192;-74
2023/04/25 08:49:33;;;;;;;9.33;3.47;;;9.10;90.70;;;8.38;55.83;100368.47;5094737;28;20216;-73
2023/04/25 08:52:07;;;;;;;11.13;3.03;;;9.10;90.30;;;8.41;54.56;100377.97;5094497;28;20531;-74
2023/04/25 08:54:43;;;;;;;14.47;3.57;;;9.10;90.10;;;8.36;54.87;100390.94;5094465;28;20184;-73
2023/04/25 08:57:19;;;;;;;7.53;2.70;;;9.10;89.90;;;8.33;54.93;100386.75;5094660;28;20224;-73
2023/04/25 08:59:52;;;;;;;10.20;2.93;;;9.10;88.70;;;8.25;52.84;100389.34;5094142;28;20232;-73
2023/04/25 09:02:25;;;;;;;12.33;3.57;;;9.00;86.90;;;8.20;54.46;100396.09;5094490;28;20215;-74
2023/04/25 09:04:59;;;;;;;9.10;2.93;;;8.90;89.20;;;8.20;54.54;100394.28;5094224;28;20185;-74
2023/04/25 09:07:32;;;;;;;9.50;2.70;;;8.90;89.50;;;8.12;54.73;100391.53;5094166;28;20559;-74
2023/04/25 09:10:04;;;;;;;16.00;3.23;;;8.90;90.00;;;8.13;55.86;100398.53;5093348;28;20560;-74
2023/04/25 09:12:37;;;;;;;9.30;2.67;;;8.90;90.30;;;8.15;56.40;100401.88;5094535;28;20189;-74
2023/04/25 09:15:13;;;;;;;13.30;3.30;;;8.90;90.60;;;8.16;57.15;100411.56;5094307;28;20189;-74
2023/04/25 09:18:01;;;;;;;14.33;3.50;;;8.90;90.90;;;8.05;55.91;100419.78;5094249;28;20228;-73
2023/04/25 09:20:41;;;;;;;7.47;3.17;;;8.80;90.30;;;8.13;55.88;100425.22;5093878;28;20707;-74
2023/04/25 09:23:32;;;;;;;9.20;2.50;;;8.90;90.60;;;8.21;55.86;100417.28;5094268;28;20193;-74
2023/04/25 09:26:07;;;;;;;12.10;2.87;;;8.90;90.20;;;8.32;54.05;100426.94;5094248;28;20196;-74
2023/04/25 09:28:39;;;;;;;11.90;3.27;;;9.00;88.70;;;8.22;54.31;100429.63;5094110;28;20316;-74
2023/04/25 09:31:21;;;;;;;7.97;2.80;;;9.00;88.80;;;8.32;56.59;100434.94;5094098;28;20182;-74
2023/04/25 09:34:02;;;;;;;7.57;2.50;;;9.00;90.50;;;8.56;52.69;100441.28;5094071;28;20227;-74
2023/04/25 09:36:37;;;;;;;8.17;2.37;;;9.20;87.50;;;8.82;52.36;100437.81;5093713;28;20629;-74
2023/04/25 09:39:19;;;;;;;10.23;2.80;;;9.50;86.50;;;8.92;54.89;100435.88;5094604;28;20236;-74
2023/04/25 09:41:56;;;;;;;8.63;2.77;;;9.60;89.60;;;9.05;53.45;100441.63;5093890;28;20236;-74
2023/04/25 09:44:28;;;;;;;7.60;2.60;;;9.70;87.40;;;9.07;51.21;100437.00;5093951;28;20185;-75
2023/04/25 09:47:02;;;;;;;6.83;2.50;;;9.80;85.70;;;9.18;50.56;100436.69;5093834;28;20184;-76
2023/04/25 09:49:34;;;;;;;8.03;2.40;;;9.90;84.40;;;9.25;50.58;100432.41;5093804;28;20224;-76
2023/04/25 09:52:06;;;;;;;9.07;2.50;;;9.90;82.60;;;9.36;49.36;100436.63;5093520;28;20193;-76
2023/04/25 09:54:38;;;;;;;8.27;2.10;;;10.10;81.50;;;9.40;45.39;100446.00;5093565;28;20193;-76
2023/04/25 09:57:16;;;;;;;5.37;1.97;;;10.00;73.90;;;9.39;44.85;100445.16;5093569;28;20680;-76
2023/04/25 09:59:51;;;;;;;5.50;2.00;;;10.10;73.60;;;9.37;43.01;100439.16;5093220;28;20236;-76
2023/04/25 10:02:28;;;;;;;8.60;2.57;;;10.10;68.60;;;9.32;44.76;100438.78;5093945;28;20192;-76
2023/04/25 10:05:03;;;;;;;6.90;1.93;;;10.00;72.10;;;9.33;45.73;100442.28;5093704;28;20378;-77
2023/04/25 10:07:37;;;;;;;6.03;2.30;;;10.00;73.60;;;9.18;44.28;100440.22;5093364;28;20188;-76
2023/04/25 10:10:15;;;;;;;5.83;2.20;;;9.90;70.40;;;9.15;46.71;100447.69;5093711;28;20189;-76
2023/04/25 10:12:48;;;;;;;9.23;2.40;;;9.80;75.00;;;9.18;48.54;100452.72;5093924;28;20208;-76
2023/04/25 10:15:20;;;;;;;5.60;2.07;;;9.90;77.60;;;9.12;46.89;100454.19;5093937;28;20193;-75
2023/04/25 10:17:54;;;;;;;7.60;2.10;;;9.80;76.10;;;9.13;47.31;100455.88;5093530;28;20558;-75
2023/04/25 10:20:27;;;;;;;8.13;1.90;;;9.80;76.40;;;9.08;47.27;100457.34;5093424;28;20209;-75
2023/04/25 10:23:05;;;;;;;7.03;2.57;;;9.80;76.30;;;9.06;47.20;100459.34;5096852;28;20250;-76
2023/04/25 10:25:38;;;;;;;6.00;2.10;;;9.80;76.90;;;9.18;48.65;100452.72;5097333;28;20647;-74
2023/04/25 10:28:10;;;;;;;6.90;2.17;;;9.90;78.30;;;9.44;49.37;100458.88;5097529;28;20236;-74
2023/04/25 10:30:57;;;;;;;6.10;2.07;;;10.10;80.20;;;9.49;47.42;100459.22;5097531;28;20185;-74
2023/04/25 10:33:43;;;;;;;7.33;2.00;;;10.20;77.20;;;9.44;47.37;100445.53;5097883;28;20189;-75
2023/04/25 10:36:18;;;;;;;6.70;2.20;;;10.10;76.50;;;9.37;47.55;100463.19;5097414;28;20204;-76
2023/04/25 10:38:54;;;;;;;4.70;2.03;;;10.00;76.30;;;9.35;47.20;100475.84;5097027;28;20708;-76
2023/04/25 10:41:26;;;;;;;7.83;2.50;;;10.10;75.80;;;9.27;48.61;100465.16;5096981;28;20211;-76
2023/04/25 10:44:07;;;;;;;10.43;2.30;;;10.00;77.90;;;9.21;47.83;100470.28;5096987;28;20660;-75